createdAt,value
2018-12-07T00:01:29.454Z,12.00
2018-12-07T00:03:57.158Z,12.00
2018-12-07T00:06:24.617Z,12.00
2018-12-07T00:08:52.121Z,12.00
2018-12-07T00:11:19.670Z,11.90
2018-12-07T00:13:47.246Z,11.90
2018-12-07T00:16:14.857Z,11.90
2018-12-07T00:18:42.397Z,11.90
2018-12-07T00:21:09.874Z,11.90
2018-12-07T00:23:37.324Z,11.90
2018-12-07T00:26:04.802Z,11.90
2018-12-07T00:28:32.258Z,11.90
2018-12-07T00:30:59.733Z,11.90
2018-12-07T00:33:27.208Z,12.00
2018-12-07T00:35:54.793Z,12.00
2018-12-07T00:38:22.248Z,12.00
2018-12-07T00:40:49.748Z,12.00
2018-12-07T00:43:17.297Z,11.90
2018-12-07T00:45:44.766Z,11.90
2018-12-07T00:48:18.637Z,11.90
2018-12-07T00:50:46.350Z,11.90
2018-12-07T00:53:13.828Z,11.90
2018-12-07T00:55:41.413Z,11.90
2018-12-07T00:58:08.974Z,11.90
2018-12-07T01:00:36.556Z,11.90
2018-12-07T01:03:04.506Z,11.90
2018-12-07T01:05:31.985Z,11.90
2018-12-07T01:07:59.507Z,11.80
2018-12-07T01:10:27.044Z,11.80
2018-12-07T01:12:54.619Z,11.80
2018-12-07T01:15:22.175Z,11.80
2018-12-07T01:17:49.646Z,11.70
2018-12-07T01:20:17.222Z,11.70
2018-12-07T01:22:44.787Z,11.70
2018-12-07T01:25:12.245Z,11.70
2018-12-07T01:27:39.744Z,11.70
2018-12-07T01:30:07.506Z,11.70
2018-12-07T01:32:35.093Z,11.70
2018-12-07T01:35:02.873Z,11.60
2018-12-07T01:37:30.341Z,11.60
2018-12-07T01:39:57.894Z,11.60
2018-12-07T01:42:25.367Z,11.50
2018-12-07T01:44:52.855Z,11.50
2018-12-07T01:47:20.404Z,11.50
2018-12-07T01:49:47.893Z,11.50
2018-12-07T01:52:15.455Z,11.50
2018-12-07T01:54:42.906Z,11.60
2018-12-07T01:57:10.402Z,11.60
2018-12-07T01:59:37.958Z,11.50
2018-12-07T02:02:05.487Z,11.50
2018-12-07T02:04:33.017Z,11.50
2018-12-07T02:07:00.475Z,11.50
2018-12-07T02:09:28.252Z,11.50
2018-12-07T02:11:55.735Z,11.50
2018-12-07T02:14:23.288Z,11.40
2018-12-07T02:16:50.753Z,11.50
2018-12-07T02:19:18.244Z,11.50
2018-12-07T02:21:45.727Z,11.50
2018-12-07T02:24:13.281Z,11.50
2018-12-07T02:26:40.760Z,11.50
2018-12-07T02:29:08.310Z,11.50
2018-12-07T02:31:35.764Z,11.60
2018-12-07T02:34:03.364Z,11.50
2018-12-07T02:36:30.838Z,11.50
2018-12-07T02:38:58.275Z,11.50
2018-12-07T02:41:25.768Z,11.50
2018-12-07T02:43:53.226Z,11.50
2018-12-07T02:46:20.699Z,11.50
2018-12-07T02:48:49.100Z,11.50
2018-12-07T02:51:16.549Z,11.50
2018-12-07T02:53:44.045Z,11.50
2018-12-07T02:56:11.598Z,11.50
2018-12-07T02:58:39.192Z,11.50
2018-12-07T03:01:06.760Z,11.50
2018-12-07T03:03:34.272Z,11.50
2018-12-07T03:06:01.754Z,11.50
2018-12-07T03:08:29.259Z,11.50
2018-12-07T03:10:56.724Z,11.50
2018-12-07T03:13:24.295Z,11.50
2018-12-07T03:15:51.785Z,11.50
2018-12-07T03:18:29.932Z,11.50
2018-12-07T03:20:57.453Z,11.50
2018-12-07T03:23:24.974Z,11.50
2018-12-07T03:25:52.616Z,11.50
2018-12-07T03:28:20.248Z,11.50
2018-12-07T03:30:47.793Z,11.50
2018-12-07T03:33:15.332Z,11.50
2018-12-07T03:35:42.786Z,11.50
2018-12-07T03:38:10.258Z,11.60
2018-12-07T03:40:37.728Z,11.50
2018-12-07T03:43:05.204Z,11.50
2018-12-07T03:45:32.703Z,11.60
2018-12-07T03:48:00.347Z,11.60
2018-12-07T03:50:27.910Z,11.60
2018-12-07T03:52:55.489Z,11.50
2018-12-07T03:55:23.054Z,11.50
2018-12-07T03:57:50.635Z,11.50
2018-12-07T04:00:18.216Z,11.50
2018-12-07T04:02:45.687Z,11.50
2018-12-07T04:05:13.257Z,11.50
2018-12-07T04:07:40.810Z,11.50
2018-12-07T04:10:08.270Z,11.50
2018-12-07T04:12:35.755Z,11.50
2018-12-07T04:15:03.554Z,11.50
2018-12-07T04:17:31.117Z,11.50
2018-12-07T04:19:58.784Z,11.50
2018-12-07T04:22:26.246Z,11.50
2018-12-07T04:24:53.742Z,11.50
2018-12-07T04:27:21.192Z,11.40
2018-12-07T04:29:48.734Z,11.40
2018-12-07T04:32:16.193Z,11.50
2018-12-07T04:34:43.709Z,11.50
2018-12-07T04:37:11.165Z,11.50
2018-12-07T04:39:38.695Z,11.50
2018-12-07T04:42:06.187Z,11.50
2018-12-07T04:44:33.739Z,11.50
2018-12-07T04:47:01.269Z,11.50
2018-12-07T04:49:28.834Z,11.50
2018-12-07T04:51:56.301Z,11.40
2018-12-07T04:54:23.756Z,11.50
2018-12-07T04:56:51.245Z,11.40
2018-12-07T04:59:18.725Z,11.40
2018-12-07T05:01:46.266Z,11.50
2018-12-07T05:04:13.943Z,11.50
2018-12-07T05:06:41.417Z,11.50
2018-12-07T05:09:08.897Z,11.50
2018-12-07T05:11:36.477Z,11.50
2018-12-07T05:14:04.056Z,11.50
2018-12-07T05:16:31.514Z,11.40
2018-12-07T05:18:59.081Z,11.50
2018-12-07T05:21:26.557Z,11.50
2018-12-07T05:23:54.121Z,11.50
2018-12-07T05:26:21.584Z,11.50
2018-12-07T05:28:49.165Z,11.50
2018-12-07T05:31:16.723Z,11.50
2018-12-07T05:33:44.313Z,11.50
2018-12-07T05:36:11.888Z,11.50
2018-12-07T05:38:39.352Z,11.50
2018-12-07T05:41:06.929Z,11.50
2018-12-07T05:43:34.389Z,11.50
2018-12-07T05:46:01.873Z,11.50
2018-12-07T05:48:30.766Z,11.50
2018-12-07T05:50:58.211Z,11.50
2018-12-07T05:53:25.659Z,11.50
2018-12-07T05:55:53.124Z,11.50
2018-12-07T05:58:20.605Z,11.50
2018-12-07T06:00:48.120Z,11.50
2018-12-07T06:03:15.671Z,11.50
2018-12-07T06:05:43.242Z,11.50
2018-12-07T06:08:10.720Z,11.50
2018-12-07T06:10:38.290Z,11.50
2018-12-07T06:13:05.768Z,11.50
2018-12-07T06:15:33.223Z,11.50
2018-12-07T06:18:00.700Z,11.60
2018-12-07T06:20:28.148Z,11.60
2018-12-07T06:22:55.630Z,11.60
2018-12-07T06:25:23.126Z,11.60
2018-12-07T06:27:50.613Z,11.60
2018-12-07T06:30:18.146Z,11.60
2018-12-07T06:32:45.614Z,11.60
2018-12-07T06:35:13.202Z,11.60
2018-12-07T06:37:40.669Z,11.60
2018-12-07T06:40:08.227Z,11.60
2018-12-07T06:42:35.812Z,11.50
2018-12-07T06:45:04.498Z,11.50
2018-12-07T06:47:31.982Z,11.50
2018-12-07T06:49:59.552Z,11.50
2018-12-07T06:52:27.021Z,11.50
2018-12-07T06:54:54.592Z,11.60
2018-12-07T06:57:22.061Z,11.50
2018-12-07T06:59:49.514Z,11.50
2018-12-07T07:02:17.000Z,11.50
2018-12-07T07:04:44.558Z,11.50
2018-12-07T07:07:12.044Z,11.50
2018-12-07T07:09:39.498Z,11.50
2018-12-07T07:12:06.970Z,11.50
2018-12-07T07:14:34.464Z,11.50
2018-12-07T07:17:02.010Z,11.50
2018-12-07T07:19:29.479Z,11.50
2018-12-07T07:21:56.939Z,11.50
2018-12-07T07:24:24.471Z,11.40
2018-12-07T07:26:51.990Z,11.40
2018-12-07T07:29:19.477Z,11.50
2018-12-07T07:31:47.038Z,11.40
2018-12-07T07:34:14.559Z,11.40
2018-12-07T07:36:42.071Z,11.40
2018-12-07T07:39:09.556Z,11.40
2018-12-07T07:41:37.047Z,11.40
2018-12-07T07:44:04.528Z,11.40
2018-12-07T07:46:32.177Z,11.40
2018-12-07T07:48:59.659Z,11.40
2018-12-07T07:51:27.198Z,11.40
2018-12-07T07:53:54.766Z,11.40
2018-12-07T07:56:22.238Z,11.40
2018-12-07T07:58:49.806Z,11.40
2018-12-07T08:01:17.400Z,11.40
2018-12-07T08:03:44.952Z,11.40
2018-12-07T08:06:12.527Z,11.40
2018-12-07T08:08:39.998Z,11.40
2018-12-07T08:11:07.484Z,11.50
2018-12-07T08:13:34.949Z,11.50
2018-12-07T08:16:02.506Z,11.60
2018-12-07T08:18:29.989Z,11.60
2018-12-07T08:20:57.514Z,11.60
2018-12-07T08:23:25.019Z,11.50
2018-12-07T08:25:53.307Z,11.50
2018-12-07T08:28:20.793Z,11.50
2018-12-07T08:30:48.306Z,11.50
2018-12-07T08:33:15.764Z,11.40
2018-12-07T08:35:43.305Z,11.40
2018-12-07T08:38:10.869Z,11.40
2018-12-07T08:40:38.335Z,11.40
2018-12-07T08:43:05.936Z,11.40
2018-12-07T08:45:33.494Z,11.40
2018-12-07T08:48:01.063Z,11.40
2018-12-07T08:50:28.613Z,11.40
2018-12-07T08:52:56.201Z,11.40
2018-12-07T08:55:23.672Z,11.30
2018-12-07T08:57:51.178Z,11.30
2018-12-07T09:00:18.713Z,11.30
2018-12-07T09:02:46.159Z,11.40
2018-12-07T09:05:13.978Z,11.40
2018-12-07T09:07:41.514Z,11.30
2018-12-07T09:10:09.093Z,11.30
2018-12-07T09:12:36.592Z,11.30
2018-12-07T09:15:04.660Z,11.30
2018-12-07T09:17:32.214Z,11.30
2018-12-07T09:19:59.802Z,11.30
2018-12-07T09:22:27.245Z,11.30
2018-12-07T09:24:54.729Z,11.30
2018-12-07T09:27:22.214Z,11.30
2018-12-07T09:29:49.766Z,11.30
2018-12-07T09:32:17.335Z,11.40
2018-12-07T09:34:44.827Z,11.40
2018-12-07T09:37:12.393Z,11.40
2018-12-07T09:39:39.968Z,11.40
2018-12-07T09:42:07.522Z,11.40
2018-12-07T09:44:35.021Z,11.30
2018-12-07T09:47:02.582Z,11.30
2018-12-07T09:49:30.033Z,11.30
2018-12-07T09:51:57.502Z,11.30
2018-12-07T09:54:24.989Z,11.30
2018-12-07T09:56:52.457Z,11.30
2018-12-07T09:59:20.029Z,11.40
2018-12-07T10:01:47.604Z,11.40
2018-12-07T10:04:15.071Z,11.40
2018-12-07T10:06:42.626Z,11.40
2018-12-07T10:09:10.113Z,11.40
2018-12-07T10:11:37.581Z,11.40
2018-12-07T10:14:05.040Z,11.40
2018-12-07T10:16:32.530Z,11.40
2018-12-07T10:19:00.098Z,11.40
2018-12-07T10:21:27.712Z,11.40
2018-12-07T10:23:55.175Z,11.40
2018-12-07T10:26:22.690Z,11.40
2018-12-07T10:28:50.162Z,11.40
2018-12-07T10:31:17.639Z,11.50
2018-12-07T10:33:45.103Z,11.40
2018-12-07T10:36:12.585Z,11.40
2018-12-07T10:38:40.138Z,11.50
2018-12-07T10:41:07.710Z,11.50
2018-12-07T10:43:35.291Z,11.50
2018-12-07T10:46:02.862Z,11.40
2018-12-07T10:48:30.310Z,11.40
2018-12-07T10:50:57.817Z,11.40
2018-12-07T10:53:25.283Z,11.40
2018-12-07T10:55:52.752Z,11.40
2018-12-07T10:58:20.203Z,11.40
2018-12-07T11:00:53.288Z,11.40
2018-12-07T11:03:26.420Z,11.40
2018-12-07T11:05:59.694Z,11.40
2018-12-07T11:08:32.894Z,11.40
2018-12-07T11:11:03.648Z,11.40
2018-12-07T11:13:33.048Z,11.40
2018-12-07T11:16:06.194Z,11.50
2018-12-07T11:18:39.441Z,11.50
2018-12-07T11:21:12.658Z,11.60
2018-12-07T11:23:45.942Z,11.60
2018-12-07T11:26:19.069Z,11.50
2018-12-07T11:31:59.656Z,11.50
2018-12-07T11:34:27.138Z,11.50
2018-12-07T11:36:54.673Z,11.50
2018-12-07T11:39:22.115Z,11.50
2018-12-07T11:41:49.598Z,11.50
2018-12-07T11:44:17.061Z,11.50
2018-12-07T11:46:44.553Z,11.50
2018-12-07T11:49:12.001Z,11.50
2018-12-07T11:51:39.478Z,11.50
2018-12-07T11:54:07.106Z,11.50
2018-12-07T11:56:34.547Z,11.50
2018-12-07T11:59:02.095Z,11.50
2018-12-07T12:01:30.177Z,11.50
2018-12-07T12:03:57.850Z,11.50
2018-12-07T12:06:25.298Z,11.50
2018-12-07T12:08:52.783Z,11.50
2018-12-07T12:11:20.258Z,11.60
2018-12-07T12:13:47.740Z,11.60
2018-12-07T12:16:15.203Z,11.60
2018-12-07T12:18:42.676Z,11.70
2018-12-07T12:21:10.148Z,11.70
2018-12-07T12:23:37.706Z,11.70
2018-12-07T12:26:05.293Z,11.70
2018-12-07T12:28:32.750Z,11.80
2018-12-07T12:31:00.232Z,11.80
2018-12-07T12:33:27.700Z,11.90
2018-12-07T12:35:55.173Z,11.80
2018-12-07T12:38:22.618Z,11.80
2018-12-07T12:40:50.153Z,11.90
2018-12-07T12:43:17.677Z,11.90
2018-12-07T12:45:45.238Z,11.90
2018-12-07T12:48:12.806Z,11.90
2018-12-07T12:50:40.382Z,11.90
2018-12-07T12:53:07.855Z,11.90
2018-12-07T12:55:35.327Z,11.90
2018-12-07T12:58:02.798Z,11.90
2018-12-07T13:00:30.423Z,12.00
2018-12-07T13:02:57.953Z,12.00
2018-12-07T13:05:25.521Z,12.00
2018-12-07T13:07:52.988Z,12.10
2018-12-07T13:10:20.503Z,12.10
2018-12-07T13:12:48.079Z,12.10
2018-12-07T13:15:15.594Z,12.10
2018-12-07T13:17:43.059Z,12.10
2018-12-07T13:20:10.629Z,12.20
2018-12-07T13:22:38.425Z,12.20
2018-12-07T13:25:06.211Z,12.20
2018-12-07T13:27:33.776Z,12.20
2018-12-07T13:30:01.335Z,12.20
2018-12-07T13:32:28.917Z,12.20
2018-12-07T13:34:56.397Z,12.20
2018-12-07T13:37:23.951Z,12.20
2018-12-07T13:39:51.453Z,12.20
2018-12-07T13:42:19.005Z,12.20
2018-12-07T13:44:46.662Z,12.20
2018-12-07T13:47:14.324Z,12.20
2018-12-07T13:49:42.086Z,12.20
2018-12-07T13:52:10.569Z,12.20
2018-12-07T13:54:38.132Z,12.20
2018-12-07T13:57:05.794Z,12.30
2018-12-07T13:59:33.446Z,12.20
2018-12-07T14:02:01.182Z,12.20
2018-12-07T14:04:28.916Z,12.20
2018-12-07T14:06:56.735Z,12.20
2018-12-07T14:09:24.397Z,12.20
2018-12-07T14:11:51.941Z,12.10
2018-12-07T14:14:19.621Z,12.10
2018-12-07T14:16:47.213Z,12.00
2018-12-07T14:19:15.064Z,12.00
2018-12-07T14:21:42.755Z,11.90
2018-12-07T14:24:10.317Z,11.80
2018-12-07T14:26:37.913Z,11.80
2018-12-07T14:29:05.524Z,11.70
2018-12-07T14:31:33.114Z,11.70
2018-12-07T14:34:00.643Z,11.70
2018-12-07T14:36:28.348Z,11.70
2018-12-07T14:38:57.801Z,11.60
2018-12-07T14:41:25.761Z,11.50
2018-12-07T14:43:53.562Z,11.50
2018-12-07T14:46:21.192Z,11.50
2018-12-07T14:48:48.745Z,11.40
2018-12-07T14:51:16.322Z,11.40
2018-12-07T14:53:43.806Z,11.40
2018-12-07T14:56:11.412Z,11.30
2018-12-07T14:58:39.236Z,11.30
2018-12-07T15:01:06.912Z,11.30
2018-12-07T15:03:34.766Z,11.30
2018-12-07T15:06:02.523Z,11.30
2018-12-07T15:08:30.281Z,11.30
2018-12-07T15:10:58.016Z,11.30
2018-12-07T15:13:25.517Z,11.40
2018-12-07T15:15:53.087Z,11.40
2018-12-07T15:18:20.769Z,11.40
2018-12-07T15:20:48.360Z,11.40
2018-12-07T15:23:16.000Z,11.40
2018-12-07T15:25:43.562Z,11.40
2018-12-07T15:28:11.230Z,11.30
2018-12-07T15:30:39.082Z,11.30
2018-12-07T15:33:07.093Z,11.30
2018-12-07T15:35:34.793Z,11.30
2018-12-07T15:38:02.612Z,11.30
2018-12-07T15:40:30.329Z,11.30
2018-12-07T15:42:57.783Z,11.30
2018-12-07T15:45:25.510Z,11.40
2018-12-07T15:47:53.267Z,11.40
2018-12-07T15:50:25.086Z,11.40
2018-12-07T15:52:50.663Z,11.40
2018-12-07T15:55:18.413Z,11.30
2018-12-07T16:00:36.602Z,11.30
2018-12-07T16:03:04.457Z,11.20
2018-12-07T16:05:32.003Z,11.20
2018-12-07T16:07:59.671Z,11.10
2018-12-07T16:10:27.419Z,11.00
2018-12-07T16:12:54.998Z,11.00
2018-12-07T16:15:22.517Z,10.90
2018-12-07T16:17:50.184Z,10.90
2018-12-07T16:20:17.713Z,10.80
2018-12-07T16:22:45.349Z,10.80
2018-12-07T16:25:13.154Z,10.80
2018-12-07T16:27:40.687Z,10.80
2018-12-07T16:30:08.511Z,10.70
2018-12-07T16:32:36.496Z,10.70
2018-12-07T16:35:04.882Z,10.70
2018-12-07T16:37:32.484Z,10.70
2018-12-07T16:40:00.003Z,10.70
2018-12-07T16:42:27.494Z,10.60
2018-12-07T16:44:55.208Z,10.60
2018-12-07T16:47:22.941Z,10.60
2018-12-07T16:49:50.543Z,10.60
2018-12-07T16:52:18.107Z,10.60
2018-12-07T16:54:45.703Z,10.60
2018-12-07T16:57:13.719Z,10.50
2018-12-07T16:59:41.558Z,10.50
2018-12-07T17:02:09.136Z,10.50
2018-12-07T17:04:36.742Z,10.50
2018-12-07T17:07:04.559Z,10.50
2018-12-07T17:09:32.209Z,10.50
2018-12-07T17:11:59.893Z,10.50
2018-12-07T17:14:27.552Z,10.40
2018-12-07T17:16:55.117Z,10.40
2018-12-07T17:19:22.758Z,10.40
2018-12-07T17:21:50.354Z,10.40
2018-12-07T17:24:17.978Z,10.40
2018-12-07T17:26:45.794Z,10.40
2018-12-07T17:29:13.591Z,10.40
2018-12-07T17:31:41.379Z,10.40
2018-12-07T17:34:09.214Z,10.30
2018-12-07T17:36:37.174Z,10.30
2018-12-07T17:39:06.580Z,10.30
2018-12-07T17:41:34.306Z,10.30
2018-12-07T17:44:02.172Z,10.30
2018-12-07T17:46:30.058Z,10.30
2018-12-07T17:48:57.958Z,10.30
2018-12-07T17:51:25.667Z,10.30
2018-12-07T17:53:53.257Z,10.20
2018-12-07T17:56:20.785Z,10.20
2018-12-07T17:58:48.627Z,10.20
2018-12-07T18:01:16.200Z,10.20
2018-12-07T18:03:43.638Z,10.20
2018-12-07T18:06:11.462Z,10.20
2018-12-07T18:08:39.213Z,10.20
2018-12-07T18:11:07.136Z,10.20
2018-12-07T18:13:34.630Z,10.20
2018-12-07T18:16:02.506Z,10.20
2018-12-07T18:18:30.037Z,10.20
2018-12-07T18:20:57.823Z,10.20
2018-12-07T18:23:25.399Z,10.10
2018-12-07T18:25:53.020Z,10.00
2018-12-07T18:28:20.650Z,9.80
2018-12-07T18:30:48.311Z,9.60
2018-12-07T18:33:15.957Z,9.50
2018-12-07T18:35:43.823Z,9.30
2018-12-07T18:38:11.677Z,9.20
2018-12-07T18:40:39.666Z,9.10
2018-12-07T18:43:07.377Z,9.00
2018-12-07T18:45:34.992Z,8.90
2018-12-07T18:48:02.963Z,8.90
2018-12-07T18:50:30.482Z,8.70
2018-12-07T18:52:57.980Z,8.60
2018-12-07T18:55:25.567Z,8.50
2018-12-07T18:57:53.504Z,8.40
2018-12-07T19:00:21.368Z,8.30
2018-12-07T19:02:49.257Z,8.30
2018-12-07T19:05:17.117Z,8.20
2018-12-07T19:07:44.904Z,8.20
2018-12-07T19:10:12.919Z,8.20
2018-12-07T19:12:40.811Z,8.10
2018-12-07T19:15:08.700Z,8.10
2018-12-07T19:17:36.331Z,8.10
2018-12-07T19:20:05.490Z,8.10
2018-12-07T19:22:33.140Z,8.10
2018-12-07T19:25:00.994Z,8.00
2018-12-07T19:27:28.626Z,8.00
2018-12-07T19:29:56.300Z,8.00
2018-12-07T19:32:24.173Z,8.00
2018-12-07T19:34:52.301Z,7.90
2018-12-07T19:37:20.110Z,7.90
2018-12-07T19:39:47.883Z,7.70
2018-12-07T19:42:15.601Z,7.70
2018-12-07T19:44:43.354Z,7.60
2018-12-07T19:47:11.292Z,7.60
2018-12-07T19:49:39.104Z,7.60
2018-12-07T19:52:06.694Z,7.60
2018-12-07T19:54:34.686Z,7.60
2018-12-07T19:57:02.326Z,7.50
2018-12-07T19:59:29.912Z,7.50
2018-12-07T20:01:57.447Z,7.50
2018-12-07T20:04:25.171Z,7.50
2018-12-07T20:06:52.791Z,7.50
2018-12-07T20:09:20.647Z,7.50
2018-12-07T20:11:48.364Z,7.50
2018-12-07T20:14:15.914Z,7.50
2018-12-07T20:16:44.107Z,7.60
2018-12-07T20:19:11.678Z,7.50
2018-12-07T20:21:39.217Z,7.50
2018-12-07T20:24:06.776Z,7.50
2018-12-07T20:26:34.642Z,7.60
2018-12-07T20:29:02.462Z,7.50
2018-12-07T20:31:30.157Z,7.50
2018-12-07T20:33:57.957Z,7.50
2018-12-07T20:36:25.684Z,7.60
2018-12-07T20:38:53.523Z,7.50
2018-12-07T20:41:21.232Z,7.50
2018-12-07T20:43:49.160Z,7.50
2018-12-07T20:46:16.780Z,7.50
2018-12-07T20:48:44.449Z,7.50
2018-12-07T20:51:12.121Z,7.50
2018-12-07T20:53:39.578Z,7.50
2018-12-07T20:56:07.162Z,7.50
2018-12-07T20:58:34.929Z,7.50
2018-12-07T21:01:02.804Z,7.50
2018-12-07T21:07:16.336Z,7.50
2018-12-07T21:09:43.858Z,7.50
2018-12-07T21:12:31.054Z,7.50
2018-12-07T21:14:58.660Z,7.50
2018-12-07T21:17:26.259Z,7.50
2018-12-07T21:19:53.794Z,7.40
2018-12-07T21:22:21.594Z,7.50
2018-12-07T21:24:49.680Z,7.50
2018-12-07T21:27:17.532Z,7.50
2018-12-07T21:29:57.939Z,7.50
2018-12-07T21:32:25.415Z,7.50
2018-12-07T21:34:59.844Z,7.50
2018-12-07T21:37:27.547Z,7.50
2018-12-07T21:40:00.037Z,7.50
2018-12-07T21:42:27.964Z,7.40
2018-12-07T21:44:55.790Z,7.30
2018-12-07T21:47:46.725Z,7.30
2018-12-07T21:50:16.270Z,7.20
2018-12-07T21:52:43.953Z,7.20
2018-12-07T21:55:11.787Z,7.10
2018-12-07T21:57:39.364Z,7.10
2018-12-07T22:00:07.045Z,7.10
2018-12-07T22:02:34.747Z,7.10
2018-12-07T22:05:02.654Z,7.10
2018-12-07T22:07:30.483Z,7.10
2018-12-07T22:09:58.366Z,7.10
2018-12-07T22:12:26.064Z,7.00
2018-12-07T22:14:53.952Z,7.00
2018-12-07T22:17:21.640Z,6.90
2018-12-07T22:19:49.224Z,7.00
2018-12-07T22:22:17.021Z,6.90
2018-12-07T22:24:44.680Z,6.90
2018-12-07T22:27:12.351Z,6.90
2018-12-07T22:29:40.170Z,6.90
2018-12-07T22:32:07.912Z,6.90
2018-12-07T22:34:36.074Z,7.00
2018-12-07T22:37:03.955Z,7.00
2018-12-07T22:39:31.850Z,6.90
2018-12-07T22:41:59.699Z,7.00
2018-12-07T22:44:27.474Z,6.90
2018-12-07T22:46:55.174Z,6.90
2018-12-07T22:49:22.749Z,6.90
2018-12-07T22:51:50.315Z,6.90
2018-12-07T22:54:18.038Z,6.90
2018-12-07T22:56:45.619Z,6.90
2018-12-07T22:59:13.194Z,6.90
2018-12-07T23:01:40.739Z,6.80
2018-12-07T23:04:08.191Z,6.80
2018-12-07T23:06:35.634Z,6.80
2018-12-07T23:09:04.839Z,6.70
2018-12-07T23:11:32.420Z,6.70
2018-12-07T23:13:59.846Z,6.80
2018-12-07T23:16:27.373Z,6.80
2018-12-07T23:18:54.810Z,6.80
2018-12-07T23:21:22.324Z,6.80
2018-12-07T23:23:49.762Z,6.70
2018-12-07T23:26:17.242Z,6.70
2018-12-07T23:28:44.713Z,6.70
2018-12-07T23:31:12.152Z,6.70
2018-12-07T23:33:39.594Z,6.70
2018-12-07T23:36:07.106Z,6.70
2018-12-07T23:38:34.601Z,6.70
2018-12-07T23:41:02.154Z,6.60
2018-12-07T23:43:29.641Z,6.60
2018-12-07T23:45:57.186Z,6.60
2018-12-07T23:48:24.772Z,6.60
2018-12-07T23:50:52.334Z,6.60
2018-12-07T23:53:19.938Z,6.60
2018-12-07T23:55:47.363Z,6.60
2018-12-07T23:58:14.847Z,6.60
